createdAt,value
2018-09-22T00:00:13.984Z,26.61
2018-09-22T00:01:13.975Z,26.51
2018-09-22T00:02:14.220Z,26.42
2018-09-22T00:03:14.202Z,26.89
2018-09-22T00:04:13.915Z,26.98
2018-09-22T00:05:13.902Z,27.56
2018-09-22T00:06:13.883Z,28.23
2018-09-22T00:07:13.876Z,28.13
2018-09-22T00:08:13.853Z,28.03
2018-09-22T00:09:14.102Z,28.32
2018-09-22T00:10:13.818Z,29.08
2018-09-22T00:11:14.069Z,28.13
2018-09-22T00:12:14.047Z,28.89
2018-09-22T00:13:14.035Z,28.61
2018-09-22T00:14:14.019Z,28.7
2018-09-22T00:15:14.008Z,28.51
2018-09-22T00:16:13.992Z,28.42
2018-09-22T00:17:13.716Z,28.7
2018-09-22T00:18:13.711Z,29.27
2018-09-22T00:19:13.671Z,30.8
2018-09-22T00:20:13.921Z,30.71
2018-09-22T00:21:13.904Z,30.8
2018-09-22T00:22:13.884Z,31.66
2018-09-22T00:23:13.870Z,32.61
2018-09-22T00:24:13.853Z,33.18
2018-09-22T00:25:13.571Z,32.81
2018-09-22T00:26:13.824Z,32.9
2018-09-22T00:27:13.661Z,34.14
2018-09-22T00:28:13.796Z,33.09
2018-09-22T00:29:13.508Z,33.47
2018-09-22T00:30:13.761Z,33.28
2018-09-22T00:31:13.473Z,32.9
2018-09-22T00:32:13.469Z,35.28
2018-09-22T00:33:13.719Z,35.1
2018-09-22T00:34:13.695Z,34.81
2018-09-22T00:35:13.679Z,34.9
2018-09-22T00:36:13.660Z,34.23
2018-09-22T00:37:13.383Z,34.05
2018-09-22T00:38:13.625Z,34.14
2018-09-22T00:39:13.620Z,34.05
2018-09-22T00:40:13.592Z,33.57
2018-09-22T00:41:13.320Z,33.37
2018-09-22T00:42:13.560Z,33.85
2018-09-22T00:43:13.544Z,33.37
2018-09-22T00:44:13.286Z,32.81
2018-09-22T00:45:13.248Z,34.23
2018-09-22T00:46:13.230Z,35.66
2018-09-22T00:47:13.486Z,35.76
2018-09-22T00:48:13.465Z,37.1
2018-09-22T00:49:13.452Z,36.81
2018-09-22T00:50:13.639Z,36.62
2018-09-22T00:51:13.414Z,36.62
2018-09-22T00:52:13.143Z,36.52
2018-09-22T00:53:13.119Z,36.81
2018-09-22T00:54:13.369Z,38.05
2018-09-22T00:55:13.356Z,37.76
2018-09-22T00:56:13.068Z,37.29
2018-09-22T00:57:13.053Z,38.34
2018-09-22T00:58:13.309Z,38.62
2018-09-22T00:59:13.292Z,38.15
2018-09-22T01:00:13.269Z,38.62
2018-09-22T01:01:12.992Z,40.24
2018-09-22T01:02:13.232Z,41.1
2018-09-22T01:03:13.219Z,41.29
2018-09-22T01:04:12.938Z,41.2
2018-09-22T01:05:12.930Z,42.63
2018-09-22T01:06:13.168Z,44.17
2018-09-22T01:07:13.158Z,45.03
2018-09-22T01:08:13.145Z,44.74
2018-09-22T01:09:13.124Z,43.41
2018-09-22T01:10:12.840Z,44.37
2018-09-22T01:11:12.828Z,43.51
2018-09-22T01:12:12.810Z,43.79
2018-09-22T01:13:13.056Z,41.6
2018-09-22T01:14:13.018Z,42.08
2018-09-22T01:15:13.025Z,42.15
2018-09-22T01:16:12.775Z,42.53
2018-09-22T01:17:12.990Z,41.96
2018-09-22T01:18:12.976Z,43.01
2018-09-22T01:19:12.963Z,43.29
2018-09-22T01:20:12.678Z,42.05
2018-09-22T01:21:12.926Z,41.77
2018-09-22T01:22:12.914Z,43.39
2018-09-22T01:23:12.900Z,41.86
2018-09-22T01:24:12.873Z,42.91
2018-09-22T01:25:12.862Z,42.27
2018-09-22T01:26:12.847Z,42.27
2018-09-22T01:27:12.564Z,42.27
2018-09-22T01:28:12.821Z,43.7
2018-09-22T01:29:12.531Z,44.08
2018-09-22T01:30:12.779Z,44.34
2018-09-22T01:31:12.499Z,43.79
2018-09-22T01:32:12.483Z,44.84
2018-09-22T01:33:12.477Z,43.51
2018-09-22T01:34:12.666Z,43.32
2018-09-22T01:35:12.697Z,43.22
2018-09-22T01:36:12.688Z,41.88
2018-09-22T01:37:12.400Z,42.08
2018-09-22T01:38:12.652Z,41.29
2018-09-22T01:39:12.369Z,41.41
2018-09-22T01:40:12.617Z,43.6
2018-09-22T01:41:12.337Z,42.36
2018-09-22T01:42:12.333Z,41.5
2018-09-22T01:43:12.572Z,41.98
2018-09-22T01:44:12.557Z,41.6
2018-09-22T01:45:12.538Z,41.22
2018-09-22T01:46:12.525Z,41.88
2018-09-22T01:47:12.238Z,41.31
2018-09-22T01:48:12.220Z,41.41
2018-09-22T01:49:12.209Z,42.17
2018-09-22T01:50:12.474Z,41.41
2018-09-22T01:51:12.176Z,40.26
2018-09-22T01:52:12.165Z,39.78
2018-09-22T01:53:12.143Z,40.07
2018-09-22T01:54:12.437Z,40.93
2018-09-22T01:55:12.378Z,40.45
2018-09-22T01:56:12.365Z,40.26
2018-09-22T01:57:12.351Z,41
2018-09-22T01:58:12.328Z,40.07
2018-09-22T01:59:12.052Z,39.98
2018-09-22T02:00:12.030Z,39.78
2018-09-22T02:01:12.386Z,39.69
2018-09-22T02:02:12.263Z,38.93
2018-09-22T02:03:11.985Z,39.59
2018-09-22T02:04:11.967Z,38.83
2018-09-22T02:05:12.219Z,38.24
2018-09-22T02:06:12.199Z,38.93
2018-09-22T02:07:12.182Z,38.35
2018-09-22T02:08:12.174Z,37.88
2018-09-22T02:09:11.891Z,37.3
2018-09-22T02:10:11.902Z,36.43
2018-09-22T02:11:12.120Z,36.81
2018-09-22T02:12:12.104Z,36.81
2018-09-22T02:13:12.095Z,36.62
2018-09-22T02:14:12.071Z,35.95
2018-09-22T02:15:11.792Z,36.24
2018-09-22T02:16:12.038Z,35.47
2018-09-22T02:17:12.026Z,34.9
2018-09-22T02:18:11.745Z,35
2018-09-22T02:19:11.724Z,34.05
2018-09-22T02:20:11.975Z,34.05
2018-09-22T02:21:11.961Z,32.81
2018-09-22T02:22:11.950Z,33.28
2018-09-22T02:23:11.927Z,32.9
2018-09-22T02:24:11.911Z,32.14
2018-09-22T02:25:11.632Z,32.23
2018-09-22T02:26:11.874Z,31.76
2018-09-22T02:27:11.596Z,31.47
2018-09-22T02:28:11.577Z,31.37
2018-09-22T02:29:11.834Z,31.28
2018-09-22T02:30:11.547Z,31.37
2018-09-22T02:31:11.800Z,30.8
2018-09-22T02:32:11.801Z,30.71
2018-09-22T02:33:11.503Z,30.23
2018-09-22T02:34:11.482Z,29.94
2018-09-22T02:35:11.468Z,29.56
2018-09-22T02:36:11.449Z,30.04
2018-09-22T02:37:11.436Z,29.56
2018-09-22T02:38:11.427Z,29.85
2018-09-22T02:39:11.680Z,28.8
2018-09-22T02:40:11.387Z,28.99
2018-09-22T02:41:11.635Z,29.27
2018-09-22T02:42:11.359Z,28.99
2018-09-22T02:43:11.336Z,29.18
2018-09-22T02:44:11.584Z,29.18
2018-09-22T02:45:11.567Z,29.08
2018-09-22T02:46:11.564Z,28.42
2018-09-22T02:47:11.271Z,28.99
2018-09-22T02:48:11.518Z,28.89
2018-09-22T02:49:11.508Z,28.89
2018-09-22T02:50:11.704Z,28.42
2018-09-22T02:51:11.533Z,28.61
2018-09-22T02:52:11.456Z,28.32
2018-09-22T02:53:11.447Z,28.51
2018-09-22T02:54:11.156Z,28.51
2018-09-22T02:55:11.141Z,28.23
2018-09-22T02:56:11.388Z,28.23
2018-09-22T02:57:11.377Z,28.7
2018-09-22T02:58:11.368Z,28.7
2018-09-22T02:59:11.077Z,28.61
2018-09-22T03:00:11.333Z,28.51
2018-09-22T03:01:11.305Z,28.7
2018-09-22T03:02:11.294Z,28.51
2018-09-22T03:03:11.011Z,28.99
2018-09-22T03:04:11.312Z,28.8
2018-09-22T03:05:10.980Z,28.89
2018-09-22T03:06:11.230Z,28.99
2018-09-22T03:07:10.948Z,28.99
2018-09-22T03:08:11.195Z,28.51
2018-09-22T03:09:10.930Z,28.61
2018-09-22T03:10:10.906Z,28.23
2018-09-22T03:11:10.885Z,28.13
2018-09-22T03:12:10.866Z,28.23
2018-09-22T03:13:10.858Z,28.32
2018-09-22T03:14:10.863Z,28.23
2018-09-22T03:15:11.672Z,28.32
2018-09-22T03:16:11.067Z,28.32
2018-09-22T03:17:11.051Z,28.32
2018-09-22T03:18:10.775Z,28.32
2018-09-22T03:19:10.765Z,28.32
2018-09-22T03:20:11.110Z,28.23
2018-09-22T03:21:10.729Z,28.32
2018-09-22T03:22:10.967Z,28.32
2018-09-22T03:23:10.689Z,28.51
2018-09-22T03:24:10.669Z,28.23
2018-09-22T03:25:10.981Z,28.23
2018-09-22T03:26:10.916Z,28.32
2018-09-22T03:27:10.621Z,28.23
2018-09-22T03:28:10.610Z,28.23
2018-09-22T03:29:10.869Z,28.61
2018-09-22T03:30:10.856Z,28.61
2018-09-22T03:31:10.563Z,29.08
2018-09-22T03:32:10.540Z,29.66
2018-09-22T03:33:10.790Z,29.56
2018-09-22T03:34:10.781Z,29.37
2018-09-22T03:35:10.760Z,29.85
2018-09-22T03:36:10.741Z,30.13
2018-09-22T03:37:10.729Z,29.85
2018-09-22T03:38:10.711Z,29.66
2018-09-22T03:39:10.427Z,29.56
2018-09-22T03:40:10.675Z,30.32
2018-09-22T03:41:10.666Z,30.52
2018-09-22T03:42:10.378Z,31.37
2018-09-22T03:43:10.633Z,31.37
2018-09-22T03:44:10.349Z,31.37
2018-09-22T03:45:10.331Z,31.47
2018-09-22T03:46:10.578Z,31.47
2018-09-22T03:47:10.566Z,32.23
2018-09-22T03:48:10.283Z,32.81
2018-09-22T03:49:10.543Z,32.71
2018-09-22T03:50:10.250Z,32.71
2018-09-22T03:51:10.237Z,32.81
2018-09-22T03:52:10.218Z,33.57
2018-09-22T03:53:10.201Z,34.23
2018-09-22T03:54:10.451Z,34.81
2018-09-22T03:55:10.442Z,34.71
2018-09-22T03:56:10.425Z,34.9
2018-09-22T03:57:10.401Z,35.57
2018-09-22T03:58:10.124Z,35.19
2018-09-22T03:59:10.104Z,35.86
2018-09-22T04:00:10.089Z,36.24
2018-09-22T04:01:10.332Z,36.14
2018-09-22T04:02:10.329Z,36.71
2018-09-22T04:03:10.305Z,36.24
2018-09-22T04:04:10.022Z,36.71
2018-09-22T04:05:10.273Z,36.24
2018-09-22T04:06:09.986Z,36.52
2018-09-22T04:07:09.972Z,36.81
2018-09-22T04:08:10.221Z,36.9
2018-09-22T04:09:09.940Z,37
2018-09-22T04:10:10.194Z,37.95
2018-09-22T04:11:09.909Z,37.57
2018-09-22T04:12:10.165Z,38.15
2018-09-22T04:13:10.147Z,38.53
2018-09-22T04:14:10.123Z,39.39
2018-09-22T04:15:09.851Z,38.81
2018-09-22T04:16:09.826Z,39.95
2018-09-22T04:17:09.887Z,39.76
2018-09-22T04:18:09.797Z,40.91
2018-09-22T04:19:09.781Z,41.58
2018-09-22T04:20:10.026Z,41.29
2018-09-22T04:21:10.007Z,40.91
2018-09-22T04:22:09.728Z,40.91
2018-09-22T04:23:09.975Z,40.91
2018-09-22T04:24:09.696Z,41.39
2018-09-22T04:25:09.683Z,42.05
2018-09-22T04:26:09.664Z,42.15
2018-09-22T04:27:09.914Z,41.67
2018-09-22T04:28:09.898Z,42.15
2018-09-22T04:29:09.909Z,42.05
2018-09-22T04:30:09.883Z,42.34
2018-09-22T04:31:09.580Z,41.77
2018-09-22T04:32:09.829Z,42.44
2018-09-22T04:33:09.595Z,42.15
2018-09-22T04:34:09.824Z,42.91
2018-09-22T04:35:09.780Z,42.34
2018-09-22T04:36:09.505Z,42.15
2018-09-22T04:37:09.750Z,42.82
2018-09-22T04:38:09.740Z,42.82
2018-09-22T04:39:09.461Z,42.72
2018-09-22T04:40:09.703Z,43.49
2018-09-22T04:41:09.421Z,43.01
2018-09-22T04:42:09.667Z,43.96
2018-09-22T04:43:09.386Z,43.68
2018-09-22T04:44:09.636Z,43.1
2018-09-22T04:45:09.617Z,43.39
2018-09-22T04:46:09.602Z,43.01
2018-09-22T04:47:09.588Z,43.77
2018-09-22T04:48:09.566Z,42.82
2018-09-22T04:49:09.292Z,42.53
2018-09-22T04:50:09.475Z,42.15
2018-09-22T04:51:09.525Z,42.05
2018-09-22T04:52:09.511Z,42.15
2018-09-22T04:53:09.507Z,42.34
2018-09-22T04:54:09.477Z,42.15
2018-09-22T04:55:09.460Z,42.15
2018-09-22T04:56:09.439Z,41.39
2018-09-22T04:57:09.422Z,41.39
2018-09-22T04:58:09.403Z,41.39
2018-09-22T04:59:09.131Z,41.2
2018-09-22T05:00:09.373Z,41.29
2018-09-22T05:01:09.091Z,41.39
2018-09-22T05:02:09.287Z,41.39
2018-09-22T05:03:09.068Z,41.39
2018-09-22T05:04:09.047Z,42.05
2018-09-22T05:05:09.030Z,41.96
2018-09-22T05:06:09.292Z,42.15
2018-09-22T05:07:08.999Z,42.44
2018-09-22T05:08:08.987Z,41.96
2018-09-22T05:09:09.239Z,43.2
2018-09-22T05:10:08.947Z,43.1
2018-09-22T05:11:09.197Z,42.82
2018-09-22T05:12:09.191Z,42.24
2018-09-22T05:13:09.176Z,42.15
2018-09-22T05:14:09.157Z,42.24
2018-09-22T05:15:09.138Z,42.63
2018-09-22T05:16:09.134Z,42.15
2018-09-22T05:17:09.250Z,42.05
2018-09-22T05:18:09.082Z,41.96
2018-09-22T05:19:09.064Z,42.05
2018-09-22T05:20:09.052Z,42.24
2018-09-22T05:21:09.035Z,42.15
2018-09-22T05:22:09.021Z,42.34
2018-09-22T05:23:09.001Z,42.05
2018-09-22T05:24:08.723Z,42.05
2018-09-22T05:25:08.715Z,42.15
2018-09-22T05:26:08.954Z,42.34
2018-09-22T05:27:08.946Z,42.24
2018-09-22T05:28:08.919Z,42.34
2018-09-22T05:29:08.642Z,42.15
2018-09-22T05:30:08.624Z,42.34
2018-09-22T05:31:08.605Z,42.24
2018-09-22T05:32:08.857Z,42.72
2018-09-22T05:33:08.576Z,42.82
2018-09-22T05:34:08.825Z,42.82
2018-09-22T05:35:08.550Z,42.63
2018-09-22T05:36:08.537Z,43.39
2018-09-22T05:37:08.779Z,42.63
2018-09-22T05:38:08.497Z,43.1
2018-09-22T05:39:08.742Z,43.39
2018-09-22T05:40:08.725Z,43.58
2018-09-22T05:41:08.716Z,43.96
2018-09-22T05:42:08.694Z,43.87
2018-09-22T05:43:08.676Z,43.87
2018-09-22T05:44:08.665Z,43.49
2018-09-22T05:45:08.654Z,43.87
2018-09-22T05:46:08.370Z,43.96
2018-09-22T05:47:08.615Z,44.06
2018-09-22T05:48:08.333Z,44.25
2018-09-22T05:49:08.583Z,43.96
2018-09-22T05:50:08.563Z,43.87
2018-09-22T05:51:08.549Z,44.44
2018-09-22T05:52:08.531Z,44.53
2018-09-22T05:53:08.520Z,44.82
2018-09-22T05:54:08.505Z,45.01
2018-09-22T05:55:08.488Z,45.29
2018-09-22T05:56:08.206Z,45.39
2018-09-22T05:57:08.452Z,45.29
2018-09-22T05:58:08.669Z,45.29
2018-09-22T05:59:08.154Z,45.2
2018-09-22T06:00:08.144Z,45.29
2018-09-22T06:01:08.387Z,45.68
2018-09-22T06:02:08.109Z,45.49
2018-09-22T06:03:08.356Z,45.1
2018-09-22T06:04:08.343Z,45.58
2018-09-22T06:05:08.059Z,45.87
2018-09-22T06:06:08.313Z,45.78
2018-09-22T06:07:08.293Z,45.7
2018-09-22T06:08:08.280Z,45.87
2018-09-22T06:09:08.006Z,46.25
2018-09-22T06:10:08.247Z,47.11
2018-09-22T06:11:08.232Z,46.94
2018-09-22T06:12:08.212Z,46.08
2018-09-22T06:13:08.206Z,46.94
2018-09-22T06:14:08.180Z,47.03
2018-09-22T06:15:07.901Z,46.84
2018-09-22T06:16:08.151Z,46.94
2018-09-22T06:17:08.137Z,47.61
2018-09-22T06:18:07.852Z,47.52
2018-09-22T06:19:08.103Z,48.08
2018-09-22T06:20:08.088Z,49.8
2018-09-22T06:21:07.810Z,48.75
2018-09-22T06:22:07.794Z,49.04
2018-09-22T06:23:07.857Z,49.71
2018-09-22T06:24:07.759Z,49.99
2018-09-22T06:25:08.010Z,49.8
2018-09-22T06:26:07.728Z,50.09
2018-09-22T06:27:07.977Z,50.38
2018-09-22T06:28:07.694Z,50.67
2018-09-22T06:29:07.943Z,51.71
2018-09-22T06:30:07.932Z,51.52
2018-09-22T06:31:07.912Z,52
2018-09-22T06:32:07.895Z,52.09
2018-09-22T06:33:07.877Z,52.19
2018-09-22T06:34:07.601Z,52
2018-09-22T06:35:07.588Z,51.9
2018-09-22T06:36:07.567Z,52
2018-09-22T06:37:07.853Z,51.23
2018-09-22T06:38:07.539Z,51.17
2018-09-22T06:39:07.519Z,52.09
2018-09-22T06:40:07.507Z,53.33
2018-09-22T06:41:07.758Z,52.76
2018-09-22T06:42:07.743Z,54.67
2018-09-22T06:43:07.721Z,54.79
2018-09-22T06:44:07.712Z,54.6
2018-09-22T06:45:07.693Z,54.1
2018-09-22T06:46:07.741Z,52.69
2018-09-22T06:47:07.667Z,54.19
2018-09-22T06:48:07.645Z,54.6
2018-09-22T06:49:07.628Z,54.03
2018-09-22T06:50:07.558Z,54.6
2018-09-22T06:51:07.598Z,55.08
2018-09-22T06:52:07.581Z,55.36
2018-09-22T06:53:07.564Z,55.18
2018-09-22T06:54:07.294Z,55.08
2018-09-22T06:55:07.537Z,55.84
2018-09-22T06:56:07.533Z,55.94
2018-09-22T06:57:07.246Z,57.46
2018-09-22T06:58:07.493Z,57.46
2018-09-22T06:59:07.215Z,57.5
2018-09-22T07:00:07.458Z,59.78
2018-09-22T07:01:07.181Z,60.71
2018-09-22T07:02:07.162Z,60.74
2018-09-22T07:03:07.409Z,60.84
2018-09-22T07:04:07.138Z,60.84
2018-09-22T07:05:07.386Z,61.32
2018-09-22T07:06:07.378Z,59.98
2018-09-22T07:07:07.362Z,60.74
2018-09-22T07:08:07.348Z,62.75
2018-09-22T07:09:07.320Z,64.37
2018-09-22T07:10:07.042Z,63.8
2018-09-22T07:11:07.292Z,63.89
2018-09-22T07:12:07.281Z,62.37
2018-09-22T07:13:07.263Z,64.47
2018-09-22T07:14:07.248Z,64.75
2018-09-22T07:15:06.966Z,65.23
2018-09-22T07:16:07.223Z,65.9
2018-09-22T07:17:06.937Z,66.66
2018-09-22T07:18:07.186Z,66
2018-09-22T07:19:07.167Z,66.38
2018-09-22T07:20:06.892Z,66
2018-09-22T07:21:07.142Z,65.71
2018-09-22T07:22:06.867Z,66.09
2018-09-22T07:23:06.848Z,69.53
2018-09-22T07:24:07.098Z,67.62
2018-09-22T07:25:06.816Z,66.19
2018-09-22T07:26:07.075Z,68
2018-09-22T07:27:07.053Z,67.52
2018-09-22T07:28:07.051Z,66.66
2018-09-22T07:29:07.022Z,66.38
2018-09-22T07:30:07.016Z,68
2018-09-22T07:31:06.733Z,69.09
2018-09-22T07:32:06.977Z,69.18
2018-09-22T07:33:06.697Z,69.37
2018-09-22T07:34:06.685Z,70.14
2018-09-22T07:35:06.937Z,68.7
2018-09-22T07:36:06.917Z,71.09
2018-09-22T07:37:06.906Z,69.76
2018-09-22T07:38:06.622Z,70.52
2018-09-22T07:39:06.877Z,70.04
2018-09-22T07:40:06.859Z,72.43
2018-09-22T07:41:06.847Z,72.81
2018-09-22T07:42:06.828Z,73.58
2018-09-22T07:43:06.553Z,73.48
2018-09-22T07:44:06.802Z,72.81
2018-09-22T07:45:06.792Z,72.24
2018-09-22T07:46:06.508Z,72.81
2018-09-22T07:47:06.491Z,72.05
2018-09-22T07:48:06.477Z,74.82
2018-09-22T07:49:06.727Z,75.96
2018-09-22T07:50:06.717Z,74.82
2018-09-22T07:51:06.700Z,75.2
2018-09-22T07:52:06.421Z,77.34
2018-09-22T07:53:06.408Z,79.25
2018-09-22T07:54:06.391Z,77.92
2018-09-22T07:55:06.640Z,77.92
2018-09-22T07:56:06.361Z,78.49
2018-09-22T07:57:06.398Z,79.44
2018-09-22T07:58:06.601Z,78.2
2018-09-22T07:59:06.584Z,77.92
2018-09-22T08:00:06.337Z,79.44
2018-09-22T08:01:06.563Z,78.78
2018-09-22T08:02:06.544Z,80.5
2018-09-22T08:03:06.527Z,77.63
2018-09-22T08:04:06.511Z,77.06
2018-09-22T08:05:06.502Z,76.67
2018-09-22T08:06:06.482Z,79.35
2018-09-22T08:07:06.473Z,79.25
2018-09-22T08:08:06.457Z,80.11
2018-09-22T08:09:06.178Z,78.78
2018-09-22T08:10:06.162Z,77.53
2018-09-22T08:11:06.148Z,78.97
2018-09-22T08:12:06.399Z,76.96
2018-09-22T08:13:06.383Z,77.06
2018-09-22T08:14:06.107Z,78.39
2018-09-22T08:15:06.092Z,79.93
2018-09-22T08:16:06.085Z,80.21
2018-09-22T08:17:06.329Z,81.93
2018-09-22T08:18:06.317Z,84.03
2018-09-22T08:19:06.300Z,83.94
2018-09-22T08:20:06.302Z,83.46
2018-09-22T08:21:06.009Z,84.75
2018-09-22T08:22:05.999Z,84.89
2018-09-22T08:23:06.252Z,82.7
2018-09-22T08:24:05.973Z,85.38
2018-09-22T08:25:06.285Z,85.75
2018-09-22T08:26:06.204Z,84.52
2018-09-22T08:27:06.188Z,84.65
2018-09-22T08:28:05.914Z,83.98
2018-09-22T08:29:05.894Z,85.22
2018-09-22T08:30:05.882Z,85.94
2018-09-22T08:31:05.866Z,84.08
2018-09-22T08:32:06.120Z,83.89
2018-09-22T08:33:06.106Z,83.79
2018-09-22T08:34:05.827Z,84.36
2018-09-22T08:35:05.817Z,87.23
2018-09-22T08:36:06.216Z,85.41
2018-09-22T08:37:05.947Z,86.08
2018-09-22T08:38:06.037Z,87.81
2018-09-22T08:39:06.042Z,87.04
2018-09-22T08:40:05.747Z,87.04
2018-09-22T08:41:05.994Z,85.41
2018-09-22T08:42:05.729Z,87.14
2018-09-22T08:43:05.708Z,85.8
2018-09-22T08:44:05.955Z,87.04
2018-09-22T08:45:05.677Z,87.04
2018-09-22T08:46:05.926Z,89.81
2018-09-22T08:47:05.917Z,88.48
2018-09-22T08:48:05.636Z,85.8
2018-09-22T08:49:05.890Z,86.76
2018-09-22T08:50:06.131Z,86.13
2018-09-22T08:51:05.970Z,90.05
2018-09-22T08:52:05.846Z,89.48
2018-09-22T08:53:05.567Z,89.95
2018-09-22T08:54:05.554Z,89.48
2018-09-22T08:55:05.807Z,88.33
2018-09-22T08:56:05.530Z,90.05
2018-09-22T08:57:05.781Z,88.04
2018-09-22T08:58:05.772Z,89.58
2018-09-22T08:59:05.757Z,92.54
2018-09-22T09:00:05.741Z,91.39
2018-09-22T09:01:05.730Z,92.49
2018-09-22T09:02:05.447Z,92.06
2018-09-22T09:03:05.437Z,92.58
2018-09-22T09:04:05.683Z,92.87
2018-09-22T09:05:05.413Z,95.36
2018-09-22T09:06:05.391Z,93.35
2018-09-22T09:07:05.379Z,94.21
2018-09-22T09:08:05.633Z,91.44
2018-09-22T09:09:05.355Z,94.5
2018-09-22T09:10:05.605Z,92.68
2018-09-22T09:11:05.328Z,92.01
2018-09-22T09:12:05.585Z,92.58
2018-09-22T09:13:05.630Z,94.31
2018-09-22T09:14:05.317Z,92.97
2018-09-22T09:15:05.277Z,93.83
2018-09-22T09:16:05.523Z,93.74
2018-09-22T09:17:05.669Z,93.16
2018-09-22T09:18:05.503Z,92.4
2018-09-22T09:19:05.544Z,94.35
2018-09-22T09:20:05.213Z,93.69
2018-09-22T09:21:05.463Z,94.55
2018-09-22T09:22:05.451Z,94.93
2018-09-22T09:23:05.171Z,98.38
2018-09-22T09:24:05.165Z,98.57
2018-09-22T09:25:05.149Z,99.91
2018-09-22T09:26:05.402Z,99.91
2018-09-22T09:27:05.399Z,99.99
2018-09-22T09:28:05.161Z,99.43
2018-09-22T09:29:05.367Z,97.23
2018-09-22T09:30:05.350Z,99.15
2018-09-22T09:31:05.073Z,96.47
2018-09-22T09:32:05.072Z,99.24
2018-09-22T09:33:05.331Z,99.99
2018-09-22T09:34:05.041Z,98.76
2018-09-22T09:35:05.292Z,98.47
2018-09-22T09:36:05.015Z,99.99
2018-09-22T09:37:05.272Z,99.99
2018-09-22T09:38:05.255Z,99.99
2018-09-22T09:39:05.241Z,99.99
2018-09-22T09:40:05.227Z,99.99
2018-09-22T09:41:05.214Z,99.99
2018-09-22T09:42:05.200Z,99.99
2018-09-22T09:43:05.190Z,99.99
2018-09-22T09:44:05.187Z,99.99
2018-09-22T09:45:04.901Z,99.99
2018-09-22T09:46:04.889Z,99.99
2018-09-22T09:47:05.145Z,99.99
2018-09-22T09:48:04.869Z,99.99
2018-09-22T09:49:04.885Z,99.99
2018-09-22T09:50:04.885Z,99.99
2018-09-22T09:51:04.828Z,99.99
2018-09-22T09:52:05.086Z,99.99
2018-09-22T09:53:04.805Z,99.99
2018-09-22T09:54:05.096Z,99.99
2018-09-22T09:55:05.139Z,99.99
2018-09-22T09:56:04.767Z,99.99
2018-09-22T09:57:05.020Z,99.99
2018-09-22T09:58:04.749Z,99.99
2018-09-22T09:59:04.997Z,99.99
2018-09-22T10:00:04.721Z,99.99
2018-09-22T10:01:04.715Z,99.99
2018-09-22T10:02:04.699Z,99.99
2018-09-22T10:03:04.963Z,99.99
2018-09-22T10:04:04.674Z,99.99
2018-09-22T10:05:04.662Z,99.99
2018-09-22T10:06:04.650Z,99.99
2018-09-22T10:07:04.645Z,99.99
2018-09-22T10:08:04.895Z,99.99
2018-09-22T10:09:04.901Z,99.99
2018-09-22T10:10:04.611Z,99.99
2018-09-22T10:11:04.858Z,99.99
2018-09-22T10:12:04.850Z,99.99
2018-09-22T10:13:04.573Z,99.99
2018-09-22T10:14:04.823Z,99.99
2018-09-22T10:15:04.555Z,99.99
2018-09-22T10:16:04.539Z,99.99
2018-09-22T10:17:04.725Z,99.99
2018-09-22T10:18:04.516Z,99.99
2018-09-22T10:19:04.501Z,99.99
2018-09-22T10:20:04.539Z,99.99
2018-09-22T10:21:04.477Z,99.99
2018-09-22T10:22:04.743Z,99.99
2018-09-22T10:23:04.720Z,99.99
2018-09-22T10:24:04.707Z,99.99
2018-09-22T10:25:04.695Z,99.99
2018-09-22T10:26:04.688Z,99.99
2018-09-22T10:27:04.674Z,99.99
2018-09-22T10:28:04.501Z,99.99
2018-09-22T10:29:04.384Z,99.99
2018-09-22T10:30:04.645Z,99.99
2018-09-22T10:31:04.630Z,99.99
2018-09-22T10:32:04.401Z,99.99
2018-09-22T10:33:04.626Z,99.99
2018-09-22T10:34:04.592Z,99.99
2018-09-22T10:35:04.316Z,99.99
2018-09-22T10:36:04.571Z,99.99
2018-09-22T10:37:04.295Z,99.99
2018-09-22T10:38:04.552Z,99.99
2018-09-22T10:39:04.562Z,99.99
2018-09-22T10:40:04.270Z,99.99
2018-09-22T10:41:04.246Z,99.99
2018-09-22T10:42:04.287Z,99.99
2018-09-22T10:43:04.489Z,99.99
2018-09-22T10:44:04.487Z,99.99
2018-09-22T10:45:04.475Z,99.99
2018-09-22T10:46:04.206Z,99.99
2018-09-22T10:47:04.181Z,99.99
2018-09-22T10:48:04.430Z,99.99
2018-09-22T10:49:04.445Z,99.99
2018-09-22T10:50:04.149Z,99.99
2018-09-22T10:51:04.602Z,99.99
2018-09-22T10:52:04.126Z,99.99
2018-09-22T10:53:04.206Z,99.99
2018-09-22T10:54:04.102Z,99.99
2018-09-22T10:55:04.364Z,99.99
2018-09-22T10:56:04.081Z,99.99
2018-09-22T10:57:04.334Z,99.99
2018-09-22T10:58:04.320Z,99.99
2018-09-22T10:59:04.050Z,99.99
2018-09-22T11:00:04.317Z,99.99
2018-09-22T11:01:04.287Z,99.99
2018-09-22T11:02:04.284Z,99.99
2018-09-22T11:03:04.268Z,99.99
2018-09-22T11:04:03.993Z,99.99
2018-09-22T11:05:04.257Z,99.25
2018-09-22T11:06:03.975Z,97.81
2018-09-22T11:07:03.963Z,96.22
2018-09-22T11:08:04.219Z,94.31
2018-09-22T11:09:04.213Z,95.75
2018-09-22T11:10:03.932Z,96.89
2018-09-22T11:11:03.923Z,96.13
2018-09-22T11:12:04.181Z,97.57
2018-09-22T11:13:03.903Z,97.96
2018-09-22T11:14:03.897Z,97.86
2018-09-22T11:15:04.150Z,99.49
2018-09-22T11:16:03.871Z,97.96
2018-09-22T11:17:04.128Z,99.87
2018-09-22T11:18:04.121Z,99.78
2018-09-22T11:19:04.150Z,99.99
2018-09-22T11:20:04.094Z,99.3
2018-09-22T11:21:04.099Z,99.99
2018-09-22T11:22:04.075Z,99.4
2018-09-22T11:23:04.066Z,95.7
2018-09-22T11:24:04.064Z,94.64
2018-09-22T11:25:03.781Z,96.8
2018-09-22T11:26:04.036Z,97.28
2018-09-22T11:27:03.931Z,96.51
2018-09-22T11:28:04.020Z,94.11
2018-09-22T11:29:04.016Z,95.75
2018-09-22T11:30:04.005Z,96.42
2018-09-22T11:31:03.724Z,95.21
2018-09-22T11:32:03.714Z,95.03
2018-09-22T11:33:03.977Z,94.93
2018-09-22T11:34:03.691Z,96.94
2018-09-22T11:35:03.972Z,97.14
2018-09-22T11:36:03.938Z,93.1
2018-09-22T11:37:03.671Z,92.63
2018-09-22T11:38:03.922Z,95.31
2018-09-22T11:39:03.648Z,99.2
2018-09-22T11:40:03.634Z,95.07
2018-09-22T11:41:03.623Z,94.4
2018-09-22T11:42:03.619Z,90.94
2018-09-22T11:43:03.605Z,89.4
2018-09-22T11:44:03.597Z,87.01
2018-09-22T11:45:03.587Z,90.27
2018-09-22T11:46:03.898Z,88.45
2018-09-22T11:47:03.837Z,88.25
2018-09-22T11:48:03.822Z,87.19
2018-09-22T11:49:03.811Z,86.24
2018-09-22T11:50:03.804Z,87.29
2018-09-22T11:51:03.533Z,84.8
2018-09-22T11:52:03.790Z,87.29
2018-09-22T11:53:03.780Z,86.52
2018-09-22T11:54:03.500Z,85.57
2018-09-22T11:55:03.491Z,86.14
2018-09-22T11:56:03.477Z,86.81
2018-09-22T11:57:03.475Z,87.15
2018-09-22T11:58:03.720Z,86.48
2018-09-22T11:59:03.712Z,89.26
2018-09-22T12:00:03.713Z,88.79
2018-09-22T12:01:03.716Z,85.81
2018-09-22T12:02:03.950Z,84.08
2018-09-22T12:03:03.410Z,84.18
2018-09-22T12:04:03.399Z,84.75
2018-09-22T12:05:03.652Z,83.8
2018-09-22T12:06:04.066Z,84.66
2018-09-22T12:07:03.367Z,83.47
2018-09-22T12:08:03.618Z,84.18
2018-09-22T12:09:03.343Z,85.52
2018-09-22T12:10:03.334Z,85.19
2018-09-22T12:11:03.595Z,85.67
2018-09-22T12:12:03.581Z,85.62
2018-09-22T12:13:03.304Z,85.62
2018-09-22T12:14:03.603Z,85.52
2018-09-22T12:15:03.280Z,85.91
2018-09-22T12:16:03.594Z,85.28
2018-09-22T12:17:03.257Z,85.77
2018-09-22T12:18:03.514Z,87.54
2018-09-22T12:19:03.499Z,85.81
2018-09-22T12:20:03.225Z,85.24
2018-09-22T12:21:03.502Z,85.81
2018-09-22T12:22:03.204Z,85.1
2018-09-22T12:23:03.192Z,85.67
2018-09-22T12:24:03.458Z,85.67
2018-09-22T12:25:03.432Z,87.73
2018-09-22T12:26:03.455Z,87.11
2018-09-22T12:27:03.411Z,87.92
2018-09-22T12:28:03.401Z,86.96
2018-09-22T12:29:03.126Z,86
2018-09-22T12:30:03.115Z,86.34
2018-09-22T12:31:03.104Z,85.67
2018-09-22T12:32:03.637Z,85.77
2018-09-22T12:33:03.342Z,84.23
2018-09-22T12:34:03.077Z,84.23
2018-09-22T12:35:03.326Z,83.56
2018-09-22T12:36:03.313Z,85
2018-09-22T12:37:03.301Z,84.42
2018-09-22T12:38:03.291Z,84.91
2018-09-22T12:39:03.020Z,84.04
2018-09-22T12:40:03.004Z,84.23
2018-09-22T12:41:02.992Z,84.04
2018-09-22T12:42:03.246Z,84.85
2018-09-22T12:43:02.976Z,85.38
2018-09-22T12:44:03.233Z,86.63
2018-09-22T12:45:02.949Z,87.44
2018-09-22T12:46:03.338Z,85.71
2018-09-22T12:47:03.203Z,85.28
2018-09-22T12:48:03.181Z,87.88
2018-09-22T12:49:03.168Z,85.28
2018-09-22T12:50:03.162Z,87.21
2018-09-22T12:51:03.352Z,86.05
2018-09-22T12:52:02.869Z,85.19
2018-09-22T12:53:03.122Z,85.96
2018-09-22T12:54:03.113Z,87.01
2018-09-22T12:55:03.099Z,87.11